KBPG/BPG METAR and TAF weather

Enter ICAO airport designator
Station Type Date Time Source
KBPG METAR 2021/07/26 17:35 UTC NOAA

KBPG 261735Z AUTO 14004KT 10SM CLR 33/16 A3007 RMK AO2 T03250161


Station Type Date Time Source
KBPG Decoded METAR 2021/07/26 17:35 UTC NOAA

Big Spring, Big Spring McMahon-Wrinkle Airport, TX, United States (KBPG) 32-12N 101-31W
Jul 26, 2021 - 01:35 PM EDT / 2021.07.26 1735 UTC
Wind: from the SE (140 degrees) at 5 MPH (4 KT):0
Visibility: 10 mile(s):0
Sky conditions: clear
Temperature: 90.5 F (32.5 C)
Dew Point: 61.0 F (16.1 C)
Relative Humidity: 37%
Pressure (altimeter): 30.07 in. Hg (1018 hPa)
ob: KBPG 261735Z AUTO 14004KT 10SM CLR 33/16 A3007 RMK AO2 T03250161
cycle: 17

Station Type Date Time Source
KBPG TAF UTC NOAA

Error!

Example: see airport list